Terminal Aerodrome Forecast
Issued by NWS Topeka, KS

Home | Current Version | Previous Version | Text Only | Print | Product List | Glossary Off
Versions: 1 2 3 4 5 6 7 8 9 10 11 12 13 14

983
FTUS43 KTOP 180520
TAFTOP
TAF
KTOP 180520Z 1806/1906 19008KT P6SM SKC
     FM181400 19012G19KT P6SM FEW250
     FM190000 18006KT P6SM FEW200=

USA.gov is the U.S. government's official web portal to all federal, state and local government web resources and services.